Thunder radar more information blitzortung!


Radar de pluja more information rain snow radar


Visita la nostra xarxa de llocs de meteo:

Template documentation
and downloads

And another site



Wind From: 11-12-2017 11:00 Until: 14:59 warning for: Wind Level: Yellow info button

Pagina Historial Weather Underground text

Diari Resum Setembre 25, 2017 Unitats:  Imperial    Mètric   Tant
« Previous Dia
SegĂźent Dia »
Diari Setmana Mensual Anual Personalitzada
  Maxima: Minima: Media:
Temperatura: 77.2 °F 61 °F 70 °F
Punt de rosada: 64.4 °F 53.1 °F 59.4 °F
Humitat: 93 % 56 % 70 %
Wind Speed: 12.7 mph 0 mph 5.1 mph
RĂ fegues de vent: 12.7 mph - -
Vent:- - East
Pression baro: 30.2 in 30 in -
Precipitacions: 0 in    
Historical Graphs
 
 
Dades de taula per Setembre 25, 2017
Temps Temperatura Punt de rosada Pression baro Vent Wind Speed RĂ fegues de vent Humitat Rainfall Rate (Hourly)
00:00 64.6 °F 61 °F 30 in Calm     88 % 0 in
00:03 66.4 °F 61.2 °F 30.1 in SW 1.2 mph   83 % 0 in
00:10 64.4 °F 60.8 °F 30 in Calm   1 mph 88 % 0 in
00:20 63.9 °F 60.3 °F 30 in SSE 1 mph 1 mph 88 % 0 in
00:30 63.5 °F 59.9 °F 30.1 in South 1 mph 2 mph 88 % 0 in
00:40 63.3 °F 59.7 °F 30 in SW 1 mph 2 mph 88 % 0 in
00:50 63.1 °F 59.7 °F 30 in Calm   2 mph 89 % 0 in
01:00 62.8 °F 59.5 °F 30 in SW 1 mph 2 mph 89 % 0 in
01:10 62.6 °F 59.4 °F 30 in Calm   2 mph 89 % 0 in
01:20 62.4 °F 59.4 °F 30 in SW 1 mph 2 mph 90 % 0 in
01:30 62.2 °F 59.4 °F 30 in Calm   2 mph 90 % 0 in
01:40 62.2 °F 59.4 °F 30.1 in Calm     90 % 0 in
01:50 62.1 °F 59.4 °F 30.1 in Calm   1 mph 91 % 0 in
02:00 62.1 °F 59.4 °F 30.1 in Calm     91 % 0 in
02:10 61.7 °F 58.6 °F 30.1 in SW 1 mph 2 mph 90 % 0 in
02:20 61.5 °F 58.8 °F 30.1 in Calm   2 mph 91 % 0 in
02:30 61.7 °F 59 °F 30.1 in WSW 1 mph 2 mph 91 % 0 in
02:40 61.9 °F 59.2 °F 30.1 in Calm     91 % 0 in
02:50 61.9 °F 59.5 °F 30.1 in Calm     92 % 0 in
03:00 61.5 °F 58.8 °F 30.1 in Calm     91 % 0 in
03:10 61.3 °F 59 °F 30.1 in Calm     92 % 0 in
03:20 61 °F 58.3 °F 30.1 in Calm   2 mph 91 % 0 in
03:30 61.2 °F 58.8 °F 30.1 in Calm   1 mph 92 % 0 in
03:40 61.5 °F 59.2 °F 30 in Calm   1 mph 92 % 0 in
03:50 61.7 °F 59.4 °F 30 in Calm     92 % 0 in
04:00 62.1 °F 60.1 °F 30.1 in Calm     93 % 0 in
04:10 62.4 °F 60.4 °F 30.1 in NNW 2 mph 2 mph 93 % 0 in
04:20 63.1 °F 61.2 °F 30.1 in Calm     93 % 0 in
04:30 63.5 °F 61.3 °F 30.1 in Calm     93 % 0 in
04:40 63.9 °F 61.5 °F 30.1 in Calm     92 % 0 in
04:50 64.6 °F 61.9 °F 30.1 in Calm   1 mph 91 % 0 in
05:00 65.3 °F 62.6 °F 30.1 in SE 1 mph 2 mph 91 % 0 in
05:10 65.8 °F 62.8 °F 30.1 in Calm   2 mph 90 % 0 in
05:20 66.6 °F 63 °F 30.1 in NNE 1 mph 3 mph 88 % 0 in
05:30 66.7 °F 62.4 °F 30.1 in NNE 3 mph 4 mph 86 % 0 in
10:32 68 °F 63.3 °F 30.1 in NNE 3.5 mph 4.5 mph 85 % 0 in
10:33 68 °F 63.3 °F 30.1 in NNE 3.5 mph 4.5 mph 85 % 0 in
10:34 67.8 °F 63.1 °F 30.1 in ENE 6.9 mph 6.9 mph 85 % 0 in
10:39 67.8 °F 62.8 °F 30.1 in WNW 2.3 mph 2.3 mph 84 % 0 in
10:44 68 °F 62.6 °F 30.1 in NNE 1.2 mph   83 % 0 in
10:49 67.8 °F 62.4 °F 30.1 in East 4.6 mph 4.6 mph 83 % 0 in
10:54 68.4 °F 62.6 °F 30.1 in NE 2.3 mph 2.3 mph 82 % 0 in
10:59 69.3 °F 63.5 °F 30.1 in ENE 4.6 mph 4.6 mph 82 % 0 in
11:04 69.4 °F 63.3 °F 30.1 in NNE 4.6 mph 4.6 mph 81 % 0 in
11:09 70.2 °F 63.7 °F 30.1 in ENE 3.8 mph 3.8 mph 80 % 0 in
11:14 70.5 °F 63.7 °F 30.1 in ENE 4.6 mph 4.6 mph 79 % 0 in
11:19 70.3 °F 63.5 °F 30.1 in ENE 3.5 mph 3.5 mph 79 % 0 in
11:24 70.9 °F 63.7 °F 30.1 in East 3.5 mph 3.5 mph 78 % 0 in
11:29 71.4 °F 64.2 °F 30.1 in East 5.8 mph 5.8 mph 78 % 0 in
11:34 71.6 °F 63.7 °F 30.1 in ENE 5.8 mph 5.8 mph 76 % 0 in
11:39 71.6 °F 63.7 °F 30.1 in ESE 5.8 mph 5.8 mph 76 % 0 in
11:44 71.6 °F 63.3 °F 30.1 in NE 3.6 mph 3.6 mph 75 % 0 in
11:49 72.3 °F 63.7 °F 30.1 in SE 5.8 mph 5.8 mph 74 % 0 in
11:54 73.4 °F 64.2 °F 30.1 in SE 5.8 mph 5.8 mph 73 % 0 in
11:59 73.2 °F 63.7 °F 30.1 in East 5.8 mph 5.8 mph 72 % 0 in
12:04 73.6 °F 64 °F 30.1 in East 5.8 mph 5.8 mph 72 % 0 in
12:09 74.1 °F 64 °F 30.1 in ESE 4.6 mph 4.6 mph 71 % 0 in
12:14 74.8 °F 64.4 °F 30.1 in ESE 6.9 mph 6.9 mph 70 % 0 in
12:19 74.7 °F 64.2 °F 30.1 in ENE 6.4 mph 6.4 mph 70 % 0 in
12:24 74.5 °F 63.1 °F 30.1 in NE 12.7 mph 12.7 mph 68 % 0 in
12:29 75.2 °F 63.5 °F 30.1 in South 5.8 mph 5.8 mph 67 % 0 in
12:34 75.7 °F 63.7 °F 30.1 in East 4.6 mph 4.6 mph 66 % 0 in
12:39 75.6 °F 63.3 °F 30.1 in SSW 9.2 mph 9.2 mph 66 % 0 in
12:44 75.4 °F 62.8 °F 30.1 in ENE 8.1 mph 8.1 mph 65 % 0 in
12:49 75.2 °F 61.7 °F 30.1 in ENE 11.5 mph 11.5 mph 63 % 0 in
12:54 75.6 °F 62.4 °F 30.1 in South 5.8 mph 5.8 mph 64 % 0 in
12:59 76.3 °F 63.1 °F 30.1 in ENE 3.6 mph 3.6 mph 64 % 0 in
13:04 75.7 °F 62.8 °F 30.1 in ESE 5.8 mph 5.8 mph 64 % 0 in
13:05 75.7 °F 62.8 °F 30.1 in ENE 5.9 mph 5.9 mph 64 % 0 in
13:10 75.2 °F 62.2 °F 30.1 in ENE 6.9 mph 6.9 mph 64 % 0 in
13:15 75.4 °F 62.8 °F 30.1 in ESE 4.6 mph 4.6 mph 65 % 0 in
13:20 75.9 °F 62.4 °F 30.1 in South 4.6 mph 4.6 mph 63 % 0 in
13:25 76.3 °F 61.9 °F 30.1 in East 8.1 mph 8.1 mph 61 % 0 in
13:30 75.7 °F 61 °F 30.1 in ESE 9.2 mph 9.2 mph 60 % 0 in
13:35 75.9 °F 61 °F 30.1 in ESE 11.5 mph 11.5 mph 60 % 0 in
13:40 76.1 °F 60.6 °F 30.1 in ESE 9.2 mph 9.2 mph 59 % 0 in
13:45 76.1 °F 60.3 °F 30.1 in ENE 10.4 mph 10.4 mph 58 % 0 in
13:50 76.5 °F 61.2 °F 30.1 in ESE 5.4 mph 5.4 mph 59 % 0 in
13:55 76.5 °F 61.2 °F 30.1 in ESE 4.6 mph 4.6 mph 59 % 0 in
14:00 76.5 °F 61.2 °F 30.1 in ESE 6.9 mph 6.9 mph 59 % 0 in
14:05 75.9 °F 61 °F 30.1 in ESE 5.8 mph 5.8 mph 60 % 0 in
14:10 77.2 °F 62.2 °F 30.1 in NNE 9.2 mph 9.2 mph 60 % 0 in
14:15 77.2 °F 61.7 °F 30.1 in East 5.8 mph 5.8 mph 59 % 0 in
14:20 76.5 °F 61.5 °F 30.1 in ESE 8.1 mph 8.1 mph 60 % 0 in
14:25 75.9 °F 61.5 °F 30.1 in East 3.5 mph 5.6 mph 61 % 0 in
14:30 76.8 °F 61.9 °F 30.1 in ENE 8.7 mph 8.7 mph 60 % 0 in
14:35 76.3 °F 61.3 °F 30.1 in ENE 6.9 mph 6.9 mph 60 % 0 in
14:40 76.3 °F 61 °F 30.1 in ENE 5.4 mph 5.4 mph 59 % 0 in
14:45 76.5 °F 61.5 °F 30.1 in East 5.8 mph 5.8 mph 60 % 0 in
14:50 76.6 °F 61.7 °F 30.1 in ESE 8.1 mph 8.1 mph 60 % 0 in
14:55 77 °F 61.5 °F 30.1 in ESE 6.9 mph 6.9 mph 59 % 0 in
15:00 76.3 °F 61.3 °F 30.1 in East 9.7 mph 9.7 mph 60 % 0 in
15:05 76.5 °F 62.4 °F 30.1 in ESE 6.9 mph 6.9 mph 62 % 0 in
15:10 76.1 °F 61.7 °F 30.1 in East 5.8 mph 5.8 mph 61 % 0 in
15:15 75.7 °F 61.9 °F 30.1 in ENE 8.1 mph 8.1 mph 62 % 0 in
15:20 75.9 °F 62.4 °F 30.1 in ENE 6 mph 6 mph 63 % 0 in
15:25 75.6 °F 62.1 °F 30.1 in ENE 6.9 mph 6.9 mph 63 % 0 in
15:30 75.4 °F 61.9 °F 30.1 in ENE 5.8 mph 5.8 mph 63 % 0 in
15:35 75.4 °F 61.9 °F 30.1 in ESE 6 mph 6 mph 63 % 0 in
15:40 75.2 °F 61.7 °F 30.1 in ESE 9.7 mph 9.7 mph 63 % 0 in
15:45 75 °F 62.1 °F 30.1 in ESE 11.5 mph 11.5 mph 64 % 0 in
15:50 75 °F 62.1 °F 30.1 in ESE 5.8 mph 5.8 mph 64 % 0 in
15:55 75 °F 62.1 °F 30.1 in ESE 10 mph 10 mph 64 % 0 in
16:00 74.8 °F 61.9 °F 30.1 in ENE 7.8 mph 7.8 mph 64 % 0 in
16:05 75.2 °F 61.7 °F 30.1 in ESE 5.8 mph 5.8 mph 63 % 0 in
16:10 75 °F 62.1 °F 30.1 in East 5.8 mph 5.8 mph 64 % 0 in
16:15 75.2 °F 61.3 °F 30.1 in East 8.1 mph 8.1 mph 62 % 0 in
16:20 74.8 °F 61.3 °F 30.1 in ESE 9.2 mph 9.2 mph 63 % 0 in
16:23 74.8 °F 61.3 °F 30.1 in ENE 8.1 mph 8.1 mph 63 % 0 in
16:28 74.8 °F 61.3 °F 30.1 in ENE 9.2 mph 9.2 mph 63 % 0 in
16:33 75.2 °F 61.3 °F 30 in South 4.6 mph 4.6 mph 62 % 0 in
16:38 75.4 °F 61 °F 30 in SE 4.6 mph 4.6 mph 61 % 0 in
16:43 75.2 °F 60.8 °F 30 in ESE 5.6 mph 5.6 mph 61 % 0 in
16:48 74.8 °F 60.4 °F 30.1 in ESE 8.1 mph 8.1 mph 61 % 0 in
16:53 74.8 °F 61 °F 30.1 in East 8.1 mph 8.1 mph 62 % 0 in
16:58 74.3 °F 60.1 °F 30.1 in ENE 9.2 mph 9.2 mph 61 % 0 in
17:03 74.3 °F 60.1 °F 30.1 in East 9.2 mph 9.2 mph 61 % 0 in
17:08 74.5 °F 60.1 °F 30.1 in ENE 6.9 mph 6.9 mph 61 % 0 in
17:13 74.5 °F 60.1 °F 30.1 in ESE 6.9 mph 6.9 mph 61 % 0 in
17:18 74.1 °F 59.7 °F 30 in SSW 10.4 mph 10.4 mph 61 % 0 in
17:23 74.1 °F 60.3 °F 30 in ENE 5.8 mph 5.8 mph 62 % 0 in
17:28 74.1 °F 59.7 °F 30 in ESE 8.1 mph 8.1 mph 61 % 0 in
17:33 74.1 °F 59.7 °F 30.1 in SE 11.5 mph 11.5 mph 61 % 0 in
17:38 74.3 °F 59.5 °F 30.1 in ESE 6.9 mph 6.9 mph 60 % 0 in
17:43 74.7 °F 59.9 °F 30.1 in ESE 10 mph 10 mph 60 % 0 in
17:48 74.3 °F 59.5 °F 30.1 in ENE 5.8 mph 5.8 mph 60 % 0 in
17:53 74.5 °F 59.7 °F 30.1 in ESE 5.8 mph 5.8 mph 60 % 0 in
17:58 73.9 °F 59.2 °F 30.1 in ESE 6.9 mph 6.9 mph 60 % 0 in
18:03 73.9 °F 59.2 °F 30.1 in ESE 8.7 mph 8.7 mph 60 % 0 in
18:08 73.6 °F 59.4 °F 30.1 in ENE 7.8 mph 7.8 mph 61 % 0 in
18:13 73.4 °F 58.6 °F 30.1 in ESE 6.4 mph 6.4 mph 60 % 0 in
18:18 73.4 °F 59.2 °F 30.1 in ENE 8.1 mph 8.1 mph 61 % 0 in
18:23 73.2 °F 59 °F 30.1 in ESE 6.9 mph 6.9 mph 61 % 0 in
18:28 73.2 °F 59 °F 30.1 in East 6.9 mph 6.9 mph 61 % 0 in
18:33 73 °F 58.8 °F 30.1 in ESE 5.8 mph 5.8 mph 61 % 0 in
18:38 73 °F 58.8 °F 30.1 in SSW 5.8 mph 5.8 mph 61 % 0 in
18:43 73 °F 58.8 °F 30.1 in ESE 8.1 mph 8.1 mph 61 % 0 in
18:48 72.9 °F 59.2 °F 30.1 in SE 5.8 mph 5.8 mph 62 % 0 in
18:53 72.5 °F 58.6 °F 30.1 in ESE 8.1 mph 8.1 mph 62 % 0 in
18:58 72.1 °F 58.8 °F 30.1 in ESE 7.6 mph 7.6 mph 63 % 0 in
19:03 72 °F 58.6 °F 30.1 in SE 7.6 mph 7.6 mph 63 % 0 in
19:08 71.8 °F 58.8 °F 30.1 in ESE 5.8 mph 5.8 mph 64 % 0 in
19:13 71.8 °F 58.8 °F 30.1 in SSE 8.1 mph 8.1 mph 64 % 0 in
19:18 71.8 °F 58.8 °F 30.1 in ENE 6.2 mph 6.2 mph 64 % 0 in
19:23 71.4 °F 59.5 °F 30.1 in ENE 5.8 mph 5.8 mph 66 % 0 in
19:28 71.4 °F 59.5 °F 30.1 in ESE 3.5 mph 3.5 mph 66 % 0 in
19:33 71.2 °F 59.4 °F 30.1 in ESE 9 mph 9 mph 66 % 0 in
19:38 71.1 °F 59.2 °F 30.1 in East 6.9 mph 6.9 mph 66 % 0 in
19:43 70.9 °F 58.1 °F 30.1 in ESE 6.9 mph 6.9 mph 64 % 0 in
19:48 70.7 °F 57.6 °F 30.1 in NE 6.9 mph 6.9 mph 63 % 0 in
19:53 70.5 °F 57.4 °F 30.1 in ENE 4.6 mph 4.6 mph 63 % 0 in
19:58 70.3 °F 57 °F 30.1 in NNE 3.1 mph 3.1 mph 63 % 0 in
20:03 70.2 °F 57 °F 30.1 in ENE 5.8 mph 5.8 mph 63 % 0 in
20:08 70 °F 56.5 °F 30.1 in North 6 mph 6 mph 62 % 0 in
20:13 70 °F 55.9 °F 30.1 in NNW 8.7 mph 8.7 mph 61 % 0 in
20:18 70 °F 55 °F 30.1 in North 10.4 mph 10.4 mph 59 % 0 in
20:23 70 °F 54.5 °F 30.1 in NNE 8.1 mph 8.1 mph 58 % 0 in
20:28 70 °F 54.5 °F 30.1 in ENE 8.5 mph 8.5 mph 58 % 0 in
20:33 69.8 °F 54.9 °F 30.1 in NNE 7.8 mph 7.8 mph 59 % 0 in
20:38 69.6 °F 53.8 °F 30.1 in East 5.8 mph 5.8 mph 57 % 0 in
20:43 69.6 °F 53.8 °F 30.1 in ENE 5.8 mph 5.8 mph 57 % 0 in
20:48 69.6 °F 53.2 °F 30.1 in ESE 10.4 mph 10.4 mph 56 % 0 in
20:53 69.1 °F 53.2 °F 30.1 in NNE 8.1 mph 8.1 mph 57 % 0 in
20:58 68.4 °F 53.4 °F 30.1 in NNW 6.9 mph 6.9 mph 59 % 0 in
21:03 67.8 °F 54 °F 30.1 in NNE 9.2 mph 9.2 mph 61 % 0 in
21:08 67.8 °F 54 °F 30.1 in ENE 4.6 mph 4.6 mph 61 % 0 in
21:13 67.5 °F 54 °F 30.1 in NNE 5.8 mph 5.8 mph 62 % 0 in
21:18 67.1 °F 54.1 °F 30.2 in ENE 5.8 mph 5.8 mph 63 % 0 in
21:23 66.7 °F 53.8 °F 30.2 in ENE 3.1 mph 3.1 mph 63 % 0 in
21:28 66.6 °F 53.6 °F 30.2 in East 3.5 mph 3.5 mph 63 % 0 in
21:33 66.6 °F 53.6 °F 30.2 in ENE 4.6 mph 4.6 mph 63 % 0 in
21:38 66.4 °F 53.1 °F 30.2 in ENE 9.2 mph 9.2 mph 62 % 0 in
21:43 66.2 °F 53.2 °F 30.2 in NE 6.9 mph 6.9 mph 63 % 0 in
21:48 66.2 °F 53.2 °F 30.2 in NE 3.5 mph 3.5 mph 63 % 0 in
21:53 66 °F 54 °F 30.2 in NNE 1.2 mph 1.2 mph 65 % 0 in
21:58 65.8 °F 53.8 °F 30.2 in ENE 1.2 mph 1.2 mph 65 % 0 in
22:03 65.7 °F 54 °F 30.2 in North 2.9 mph 2.9 mph 66 % 0 in
22:08 64.9 °F 54.1 °F 30.2 in North 1.4 mph 1.4 mph 68 % 0 in
22:13 64.6 °F 54.1 °F 30.2 in NNE 4.3 mph 4.3 mph 69 % 0 in
22:18 64.2 °F 54.1 °F 30.2 in NNE 3.5 mph 3.5 mph 70 % 0 in
22:23 64 °F 54.3 °F 30.2 in NE 3.5 mph 3.5 mph 71 % 0 in
22:28 63.9 °F 54.7 °F 30.2 in NNE 2.9 mph 2.9 mph 72 % 0 in
22:33 63.7 °F 54.5 °F 30.2 in NNE 2.3 mph 2.3 mph 72 % 0 in
22:38 63.5 °F 54.3 °F 30.2 in ENE 3.5 mph 3.5 mph 72 % 0 in
22:43 63.1 °F 54 °F 30.2 in NNE 5.8 mph 5.8 mph 72 % 0 in
22:48 63 °F 54.1 °F 30.2 in ENE 3.8 mph 3.8 mph 73 % 0 in
22:53 63 °F 54.1 °F 30.2 in NNE 5.8 mph 5.8 mph 73 % 0 in
22:58 62.8 °F 54 °F 30.2 in North 4.6 mph 4.6 mph 73 % 0 in
23:03 62.8 °F 54 °F 30.2 in North 3.6 mph 3.6 mph 73 % 0 in
23:08 62.8 °F 54 °F 30.2 in NNE 4.6 mph 4.6 mph 73 % 0 in
23:13 62.8 °F 54.3 °F 30.2 in NE 4 mph 4 mph 74 % 0 in
23:18 62.6 °F 54.1 °F 30.2 in ENE 2.3 mph 2.3 mph 74 % 0 in
23:23 62.6 °F 54.1 °F 30.2 in NNE 3.5 mph 3.5 mph 74 % 0 in
23:28 62.6 °F 54.1 °F 30.2 in NNE 3.8 mph 3.8 mph 74 % 0 in
23:29 62.6 °F 54.1 °F 30.2 in North 5.8 mph 5.8 mph 74 % 0 in
23:34 62.4 °F 54.9 °F 30.2 in ENE 3.5 mph 3.5 mph 76 % 0 in
23:39 62.4 °F 54.9 °F 30.2 in ENE 3.5 mph 3.5 mph 76 % 0 in
23:44 62.2 °F 54.7 °F 30.2 in NE 2.3 mph 2.3 mph 76 % 0 in
23:49 62.2 °F 54.7 °F 30.2 in NE 1.2 mph   76 % 0 in
23:54 62.1 °F 54.3 °F 30.2 in Calm     76 % 0 in
23:59 61.9 °F 54.1 °F 30.2 in Calm     76 % 0 in
Meteo Sesrovires
Elogis d' Weather Underground - 3.5 mb

Guio original per  Jim McMurry - jmcmurry@mwt.net Adaptat per a la plantilla per  Wim van der Kuil - Leuven-Template.eu

Trobareu la nostra informacio del temps tambe a:

Weather Underground

AWEKAS